DAL326 KRDU-KJFK
Flight info
| Callsign | DAL326 |
|---|---|
| Flight time | 1h 7m |
| Altitude | 35000 |
| Route | HURIC4 FEBEL GUILD SAWED Q108 SIE CAMRN5 |
| Aircraft | B738/M-SDE2E3FGHIRWXY/LB1 |
Departure
| Time | 2026-05-09 12:52 |
|---|---|
| Airport | Raleigh-Durham International Airport (KRDU) |
Arrival
| Time | 2026-05-09 14:00 |
|---|---|
| Airport | John F. Kennedy International Airport (KJFK) |
| Time | Latitude | Longitude | Altitude | Speed | Heading |
|---|---|---|---|---|---|
| 2026-05-09 12:32 | 35.87335 | -78.79011 | 433 ft | 0 kts | 317° |
| 2026-05-09 12:41 | 35.87325 | -78.78999 | 419 ft | 4 kts | 323° |
| 2026-05-09 12:42 | 35.87302 | -78.78983 | 424 ft | 4 kts | 340° |
| 2026-05-09 12:42 | 35.87276 | -78.78974 | 428 ft | 4 kts | 346° |
| 2026-05-09 12:42 | 35.87258 | -78.78966 | 425 ft | 4 kts | 8° |
| 2026-05-09 12:42 | 35.87250 | -78.78974 | 430 ft | 4 kts | 36° |
| 2026-05-09 12:43 | 35.87249 | -78.78975 | 430 ft | 1 kts | 35° |
| 2026-05-09 12:46 | 35.87249 | -78.78974 | 430 ft | 1 kts | 36° |
| 2026-05-09 12:47 | 35.87254 | -78.78967 | 426 ft | 0 kts | 52° |
| 2026-05-09 12:47 | 35.87276 | -78.78928 | 423 ft | 13 kts | 53° |
| 2026-05-09 12:47 | 35.87349 | -78.78832 | 431 ft | 16 kts | 44° |
| 2026-05-09 12:48 | 35.87430 | -78.78733 | 428 ft | 17 kts | 46° |
| 2026-05-09 12:48 | 35.87517 | -78.78628 | 432 ft | 17 kts | 44° |
| 2026-05-09 12:48 | 35.87597 | -78.78526 | 431 ft | 16 kts | 47° |
| 2026-05-09 12:48 | 35.87674 | -78.78432 | 424 ft | 16 kts | 44° |
| 2026-05-09 12:49 | 35.87758 | -78.78328 | 428 ft | 17 kts | 45° |
| 2026-05-09 12:49 | 35.87840 | -78.78226 | 421 ft | 17 kts | 45° |
| 2026-05-09 12:49 | 35.87922 | -78.78126 | 427 ft | 15 kts | 44° |
| 2026-05-09 12:49 | 35.87969 | -78.78059 | 427 ft | 2 kts | 63° |
| 2026-05-09 12:50 | 35.87968 | -78.78026 | 425 ft | 0 kts | 110° |
| 2026-05-09 12:51 | 35.87964 | -78.78017 | 426 ft | 4 kts | 124° |
| 2026-05-09 12:51 | 35.87913 | -78.77970 | 417 ft | 10 kts | 174° |
| 2026-05-09 12:51 | 35.87881 | -78.77992 | 419 ft | 0 kts | 225° |
| 2026-05-09 12:51 | 35.87881 | -78.77993 | 419 ft | 3 kts | 225° |
| 2026-05-09 12:52 | 35.87678 | -78.78241 | 421 ft | 78 kts | 225° |
| 2026-05-09 12:52 | 35.87136 | -78.78908 | 424 ft | 140 kts | 225° |
| 2026-05-09 12:52 | 35.86322 | -78.79885 | 625 ft | 177 kts | 223° |
| 2026-05-09 12:52 | 35.85444 | -78.80942 | 1488 ft | 173 kts | 224° |
| 2026-05-09 12:53 | 35.84585 | -78.82045 | 2119 ft | 192 kts | 225° |
| 2026-05-09 12:53 | 35.83607 | -78.83315 | 2428 ft | 216 kts | 225° |
| 2026-05-09 12:53 | 35.82547 | -78.84695 | 3035 ft | 227 kts | 226° |
| 2026-05-09 12:53 | 35.81458 | -78.86103 | 3947 ft | 227 kts | 226° |
| 2026-05-09 12:54 | 35.80356 | -78.87507 | 4838 ft | 229 kts | 226° |
| 2026-05-09 12:54 | 35.79230 | -78.88919 | 5550 ft | 233 kts | 226° |
| 2026-05-09 12:54 | 35.77887 | -78.89998 | 5934 ft | 235 kts | 194° |
| 2026-05-09 12:54 | 35.76213 | -78.89831 | 6420 ft | 260 kts | 160° |
| 2026-05-09 12:55 | 35.74778 | -78.88365 | 6936 ft | 283 kts | 126° |
| 2026-05-09 12:55 | 35.74033 | -78.86074 | 7629 ft | 297 kts | 101° |
| 2026-05-09 12:55 | 35.74088 | -78.83506 | 8333 ft | 307 kts | 75° |
| 2026-05-09 12:55 | 35.74812 | -78.81012 | 9074 ft | 313 kts | 67° |
| 2026-05-09 12:56 | 35.75681 | -78.78528 | 9810 ft | 319 kts | 65° |
| 2026-05-09 12:56 | 35.76588 | -78.75975 | 10373 ft | 332 kts | 65° |
| 2026-05-09 12:56 | 35.77527 | -78.73299 | 10539 ft | 357 kts | 65° |
| 2026-05-09 12:56 | 35.78550 | -78.70369 | 10863 ft | 375 kts | 65° |
| 2026-05-09 12:57 | 35.79589 | -78.67387 | 11466 ft | 382 kts | 66° |
| 2026-05-09 12:57 | 35.80644 | -78.64358 | 12157 ft | 387 kts | 66° |
| 2026-05-09 12:57 | 35.81698 | -78.61332 | 12846 ft | 392 kts | 66° |
| 2026-05-09 12:57 | 35.82781 | -78.58219 | 13541 ft | 397 kts | 66° |
| 2026-05-09 12:58 | 35.83876 | -78.55072 | 14183 ft | 402 kts | 66° |
| 2026-05-09 12:58 | 35.84990 | -78.51869 | 14777 ft | 408 kts | 66° |
| 2026-05-09 12:58 | 35.86113 | -78.48636 | 15391 ft | 413 kts | 66° |
| 2026-05-09 12:58 | 35.87251 | -78.45356 | 16000 ft | 418 kts | 66° |
| 2026-05-09 12:59 | 35.88400 | -78.42040 | 16579 ft | 424 kts | 66° |
| 2026-05-09 12:59 | 35.89568 | -78.38670 | 17154 ft | 429 kts | 66° |
| 2026-05-09 12:59 | 35.90745 | -78.35265 | 17743 ft | 434 kts | 66° |
| 2026-05-09 12:59 | 35.91885 | -78.31789 | 18290 ft | 440 kts | 73° |
| 2026-05-09 13:00 | 35.92413 | -78.28065 | 18768 ft | 443 kts | 85° |
| 2026-05-09 13:00 | 35.92706 | -78.24264 | 19295 ft | 448 kts | 86° |
| 2026-05-09 13:00 | 35.93007 | -78.20418 | 19761 ft | 453 kts | 85° |
| 2026-05-09 13:00 | 35.93349 | -78.16529 | 20220 ft | 459 kts | 84° |
| 2026-05-09 13:01 | 35.93719 | -78.12598 | 20681 ft | 463 kts | 84° |
| 2026-05-09 13:01 | 35.94104 | -78.08628 | 21159 ft | 468 kts | 84° |
| 2026-05-09 13:01 | 35.94491 | -78.04617 | 21612 ft | 473 kts | 84° |
| 2026-05-09 13:01 | 35.94880 | -78.00570 | 22055 ft | 478 kts | 83° |
| 2026-05-09 13:02 | 35.95270 | -77.96474 | 22490 ft | 483 kts | 83° |
| 2026-05-09 13:02 | 35.95681 | -77.92346 | 22963 ft | 485 kts | 80° |
| 2026-05-09 13:02 | 35.96635 | -77.88423 | 23419 ft | 484 kts | 60° |
| 2026-05-09 13:02 | 35.98411 | -77.84859 | 23851 ft | 481 kts | 50° |
| 2026-05-09 13:03 | 36.00332 | -77.81461 | 24198 ft | 485 kts | 50° |
| 2026-05-09 13:03 | 36.02265 | -77.78086 | 24521 ft | 490 kts | 50° |
| 2026-05-09 13:03 | 36.04233 | -77.74626 | 24857 ft | 494 kts | 50° |
| 2026-05-09 13:03 | 36.06204 | -77.71115 | 25212 ft | 498 kts | 50° |
| 2026-05-09 13:04 | 36.08168 | -77.67575 | 25560 ft | 502 kts | 50° |
| 2026-05-09 13:04 | 36.10138 | -77.63995 | 25877 ft | 506 kts | 51° |
| 2026-05-09 13:04 | 36.12119 | -77.60378 | 26243 ft | 510 kts | 51° |
| 2026-05-09 13:04 | 36.14114 | -77.56730 | 26543 ft | 513 kts | 51° |
| 2026-05-09 13:05 | 36.16118 | -77.53061 | 26908 ft | 515 kts | 51° |
| 2026-05-09 13:05 | 36.18132 | -77.49373 | 27199 ft | 519 kts | 51° |
| 2026-05-09 13:05 | 36.20168 | -77.45646 | 27462 ft | 524 kts | 51° |
| 2026-05-09 13:05 | 36.22213 | -77.41898 | 27742 ft | 528 kts | 51° |
| 2026-05-09 13:06 | 36.24274 | -77.38116 | 28043 ft | 531 kts | 51° |
| 2026-05-09 13:06 | 36.26316 | -77.34363 | 28343 ft | 534 kts | 51° |
| 2026-05-09 13:06 | 36.28399 | -77.30534 | 28613 ft | 538 kts | 51° |
| 2026-05-09 13:06 | 36.30513 | -77.26698 | 28873 ft | 539 kts | 48° |
| 2026-05-09 13:07 | 36.32897 | -77.23126 | 29178 ft | 534 kts | 38° |
| 2026-05-09 13:07 | 36.35602 | -77.20003 | 29482 ft | 531 kts | 34° |
| 2026-05-09 13:07 | 36.38380 | -77.16962 | 29752 ft | 533 kts | 33° |
| 2026-05-09 13:07 | 36.41188 | -77.13919 | 29974 ft | 537 kts | 33° |
| 2026-05-09 13:08 | 36.44002 | -77.10855 | 30187 ft | 540 kts | 33° |
| 2026-05-09 13:08 | 36.46826 | -77.07747 | 30424 ft | 542 kts | 34° |
| 2026-05-09 13:08 | 36.49634 | -77.04621 | 30752 ft | 542 kts | 34° |
| 2026-05-09 13:08 | 36.52432 | -77.01480 | 31179 ft | 541 kts | 34° |
| 2026-05-09 13:09 | 36.55204 | -76.98354 | 31640 ft | 536 kts | 34° |
| 2026-05-09 13:09 | 36.57963 | -76.95235 | 32001 ft | 535 kts | 33° |
| 2026-05-09 13:09 | 36.60721 | -76.92120 | 32316 ft | 535 kts | 33° |
| 2026-05-09 13:09 | 36.63478 | -76.89008 | 32584 ft | 536 kts | 33° |
| 2026-05-09 13:10 | 36.66249 | -76.85880 | 32794 ft | 537 kts | 33° |
| 2026-05-09 13:10 | 36.69022 | -76.82750 | 33037 ft | 538 kts | 33° |
| 2026-05-09 13:10 | 36.71802 | -76.79605 | 33332 ft | 538 kts | 33° |
| 2026-05-09 13:10 | 36.74532 | -76.76512 | 33684 ft | 538 kts | 33° |
| 2026-05-09 13:11 | 36.77299 | -76.73374 | 33950 ft | 538 kts | 33° |
| 2026-05-09 13:11 | 36.80073 | -76.70227 | 34149 ft | 539 kts | 33° |
| 2026-05-09 13:11 | 36.82847 | -76.67076 | 34375 ft | 540 kts | 33° |
| 2026-05-09 13:11 | 36.85621 | -76.63920 | 34684 ft | 538 kts | 33° |
| 2026-05-09 13:12 | 36.88382 | -76.60773 | 35014 ft | 537 kts | 33° |
| 2026-05-09 13:12 | 36.93944 | -76.54438 | 35026 ft | 542 kts | 33° |
| 2026-05-09 13:13 | 36.99501 | -76.48084 | 34990 ft | 538 kts | 33° |
| 2026-05-09 13:13 | 37.04989 | -76.41791 | 35013 ft | 534 kts | 33° |
| 2026-05-09 13:14 | 37.10478 | -76.35499 | 35019 ft | 535 kts | 33° |
| 2026-05-09 13:16 | 37.32447 | -76.10166 | 35027 ft | 536 kts | 34° |
| 2026-05-09 13:16 | 37.37004 | -76.04883 | 35076 ft | 536 kts | 34° |
| 2026-05-09 13:17 | 37.42476 | -75.98529 | 35037 ft | 535 kts | 34° |
| 2026-05-09 13:17 | 37.47933 | -75.92178 | 35020 ft | 533 kts | 34° |
| 2026-05-09 13:18 | 37.53408 | -75.85918 | 35013 ft | 526 kts | 29° |
| 2026-05-09 13:18 | 37.56372 | -75.83330 | 35020 ft | 512 kts | 20° |
| 2026-05-09 13:18 | 37.59437 | -75.81055 | 35025 ft | 509 kts | 19° |
| 2026-05-09 13:19 | 37.65581 | -75.76604 | 35008 ft | 509 kts | 19° |
| 2026-05-09 13:19 | 37.71695 | -75.72064 | 35022 ft | 511 kts | 20° |
| 2026-05-09 13:20 | 37.77815 | -75.67436 | 35049 ft | 512 kts | 20° |
| 2026-05-09 13:20 | 37.83904 | -75.62826 | 35031 ft | 514 kts | 21° |
| 2026-05-09 13:21 | 37.89935 | -75.57796 | 35030 ft | 521 kts | 25° |
| 2026-05-09 13:21 | 37.95889 | -75.52511 | 35027 ft | 522 kts | 25° |
| 2026-05-09 13:22 | 38.01862 | -75.47283 | 35047 ft | 522 kts | 25° |
| 2026-05-09 13:22 | 38.07868 | -75.42124 | 34996 ft | 519 kts | 23° |
| 2026-05-09 13:23 | 38.23006 | -75.29981 | 35016 ft | 507 kts | 16° |
| 2026-05-09 13:24 | 38.26192 | -75.28217 | 35026 ft | 493 kts | 7° |
| 2026-05-09 13:24 | 38.29440 | -75.27040 | 35011 ft | 476 kts | 358° |
| 2026-05-09 13:24 | 38.35923 | -75.25796 | 35016 ft | 471 kts | 355° |
| 2026-05-09 13:25 | 38.42408 | -75.24527 | 35067 ft | 472 kts | 357° |
| 2026-05-09 13:26 | 38.52165 | -75.22481 | 35020 ft | 475 kts | 358° |
| 2026-05-09 13:26 | 38.58685 | -75.21084 | 35011 ft | 475 kts | 358° |
| 2026-05-09 13:27 | 38.65178 | -75.19696 | 35040 ft | 476 kts | 358° |
| 2026-05-09 13:27 | 38.68438 | -75.18708 | 34995 ft | 490 kts | 8° |
| 2026-05-09 13:27 | 38.71631 | -75.17018 | 35010 ft | 503 kts | 18° |
| 2026-05-09 13:27 | 38.74656 | -75.14656 | 34996 ft | 516 kts | 28° |
| 2026-05-09 13:28 | 38.77522 | -75.11870 | 35011 ft | 518 kts | 30° |
| 2026-05-09 13:28 | 38.83136 | -75.06159 | 34797 ft | 504 kts | 30° |
| 2026-05-09 13:28 | 38.85868 | -75.03392 | 34192 ft | 498 kts | 30° |
| 2026-05-09 13:29 | 38.88608 | -75.00664 | 33263 ft | 497 kts | 30° |
| 2026-05-09 13:29 | 38.91361 | -74.97959 | 32192 ft | 499 kts | 30° |
| 2026-05-09 13:29 | 38.94131 | -74.95247 | 31147 ft | 500 kts | 31° |
| 2026-05-09 13:29 | 38.96897 | -74.92537 | 30142 ft | 500 kts | 32° |
| 2026-05-09 13:30 | 38.99656 | -74.89824 | 28958 ft | 499 kts | 33° |
| 2026-05-09 13:30 | 39.02411 | -74.87108 | 27677 ft | 499 kts | 33° |
| 2026-05-09 13:30 | 39.05126 | -74.84422 | 27290 ft | 481 kts | 33° |
| 2026-05-09 13:30 | 39.07729 | -74.81842 | 26997 ft | 466 kts | 33° |
| 2026-05-09 13:31 | 39.10278 | -74.79320 | 26735 ft | 457 kts | 33° |
| 2026-05-09 13:31 | 39.12745 | -74.76757 | 26481 ft | 456 kts | 35° |
| 2026-05-09 13:31 | 39.15148 | -74.74153 | 26244 ft | 458 kts | 36° |
| 2026-05-09 13:31 | 39.17583 | -74.71476 | 25946 ft | 458 kts | 36° |
| 2026-05-09 13:32 | 39.20000 | -74.68818 | 25503 ft | 454 kts | 36° |
| 2026-05-09 13:32 | 39.24777 | -74.63600 | 24638 ft | 447 kts | 36° |
| 2026-05-09 13:32 | 39.27147 | -74.61026 | 24161 ft | 444 kts | 36° |
| 2026-05-09 13:33 | 39.29505 | -74.58468 | 23723 ft | 441 kts | 36° |
| 2026-05-09 13:33 | 39.31853 | -74.55920 | 23217 ft | 439 kts | 36° |
| 2026-05-09 13:33 | 39.34143 | -74.53432 | 22724 ft | 436 kts | 36° |
| 2026-05-09 13:33 | 39.36453 | -74.50918 | 22271 ft | 432 kts | 36° |
| 2026-05-09 13:34 | 39.38741 | -74.48426 | 21815 ft | 428 kts | 36° |
| 2026-05-09 13:34 | 39.41009 | -74.45954 | 21377 ft | 424 kts | 36° |
| 2026-05-09 13:34 | 39.43256 | -74.43502 | 20972 ft | 421 kts | 36° |
| 2026-05-09 13:34 | 39.45485 | -74.41069 | 20524 ft | 418 kts | 36° |
| 2026-05-09 13:35 | 39.47704 | -74.38645 | 20092 ft | 415 kts | 36° |
| 2026-05-09 13:35 | 39.49901 | -74.36244 | 19661 ft | 413 kts | 36° |
| 2026-05-09 13:35 | 39.52087 | -74.33851 | 19224 ft | 410 kts | 36° |
| 2026-05-09 13:35 | 39.54234 | -74.31501 | 18815 ft | 408 kts | 36° |
| 2026-05-09 13:36 | 39.56398 | -74.29130 | 18393 ft | 406 kts | 36° |
| 2026-05-09 13:36 | 39.58549 | -74.26770 | 17931 ft | 404 kts | 36° |
| 2026-05-09 13:36 | 39.60684 | -74.24426 | 17541 ft | 400 kts | 36° |
| 2026-05-09 13:36 | 39.62803 | -74.22097 | 17172 ft | 399 kts | 36° |
| 2026-05-09 13:37 | 39.64913 | -74.19778 | 16819 ft | 397 kts | 36° |
| 2026-05-09 13:37 | 39.67011 | -74.17469 | 16456 ft | 394 kts | 36° |
| 2026-05-09 13:37 | 39.69095 | -74.15173 | 16107 ft | 392 kts | 36° |
| 2026-05-09 13:37 | 39.71170 | -74.12886 | 15765 ft | 389 kts | 37° |
| 2026-05-09 13:38 | 39.73226 | -74.10617 | 15422 ft | 387 kts | 37° |
| 2026-05-09 13:38 | 39.75280 | -74.08348 | 15076 ft | 386 kts | 37° |
| 2026-05-09 13:38 | 39.77300 | -74.06116 | 14754 ft | 385 kts | 37° |
| 2026-05-09 13:38 | 39.79346 | -74.03854 | 14419 ft | 385 kts | 37° |
| 2026-05-09 13:39 | 39.81389 | -74.01593 | 14086 ft | 385 kts | 38° |
| 2026-05-09 13:39 | 39.83424 | -73.99339 | 13726 ft | 384 kts | 37° |
| 2026-05-09 13:39 | 39.85566 | -73.97301 | 13332 ft | 379 kts | 27° |
| 2026-05-09 13:39 | 39.87860 | -73.95655 | 12986 ft | 375 kts | 24° |
| 2026-05-09 13:40 | 39.90174 | -73.94125 | 12641 ft | 372 kts | 24° |
| 2026-05-09 13:40 | 39.92473 | -73.92596 | 12317 ft | 371 kts | 24° |
| 2026-05-09 13:40 | 39.94757 | -73.91037 | 11988 ft | 369 kts | 25° |
| 2026-05-09 13:40 | 39.97011 | -73.89460 | 11647 ft | 365 kts | 26° |
| 2026-05-09 13:41 | 39.99223 | -73.87893 | 11322 ft | 360 kts | 26° |
| 2026-05-09 13:41 | 40.01384 | -73.86356 | 11037 ft | 346 kts | 26° |
| 2026-05-09 13:41 | 40.03425 | -73.84872 | 10990 ft | 326 kts | 27° |
| 2026-05-09 13:41 | 40.05364 | -73.83440 | 10973 ft | 313 kts | 27° |
| 2026-05-09 13:42 | 40.07222 | -73.82058 | 10972 ft | 301 kts | 27° |
| 2026-05-09 13:42 | 40.08976 | -73.80748 | 10967 ft | 288 kts | 27° |
| 2026-05-09 13:42 | 40.10681 | -73.79470 | 10973 ft | 279 kts | 27° |
| 2026-05-09 13:42 | 40.12353 | -73.78215 | 10978 ft | 276 kts | 27° |
| 2026-05-09 13:43 | 40.14018 | -73.76965 | 10850 ft | 275 kts | 27° |
| 2026-05-09 13:43 | 40.15677 | -73.75721 | 10563 ft | 276 kts | 27° |
| 2026-05-09 13:43 | 40.17351 | -73.74474 | 10262 ft | 277 kts | 27° |
| 2026-05-09 13:43 | 40.19026 | -73.73236 | 10024 ft | 276 kts | 27° |
| 2026-05-09 13:44 | 40.20695 | -73.72008 | 9784 ft | 274 kts | 27° |
| 2026-05-09 13:44 | 40.22357 | -73.70788 | 9515 ft | 274 kts | 27° |
| 2026-05-09 13:44 | 40.24018 | -73.69572 | 9268 ft | 273 kts | 27° |
| 2026-05-09 13:44 | 40.25671 | -73.68363 | 9031 ft | 272 kts | 27° |
| 2026-05-09 13:45 | 40.27319 | -73.67164 | 8788 ft | 270 kts | 27° |
| 2026-05-09 13:45 | 40.28963 | -73.65971 | 8542 ft | 270 kts | 27° |
| 2026-05-09 13:45 | 40.30602 | -73.64786 | 8305 ft | 269 kts | 27° |
| 2026-05-09 13:45 | 40.32236 | -73.63610 | 8078 ft | 267 kts | 27° |
| 2026-05-09 13:46 | 40.33850 | -73.62453 | 7835 ft | 267 kts | 27° |
| 2026-05-09 13:46 | 40.35478 | -73.61291 | 7624 ft | 266 kts | 27° |
| 2026-05-09 13:46 | 40.37103 | -73.60134 | 7442 ft | 265 kts | 27° |
| 2026-05-09 13:46 | 40.38725 | -73.58984 | 7257 ft | 264 kts | 27° |
| 2026-05-09 13:47 | 40.40337 | -73.57836 | 7053 ft | 263 kts | 27° |
| 2026-05-09 13:47 | 40.41943 | -73.56691 | 6841 ft | 262 kts | 27° |
| 2026-05-09 13:47 | 40.43545 | -73.55551 | 6629 ft | 261 kts | 27° |
| 2026-05-09 13:47 | 40.45142 | -73.54414 | 6416 ft | 261 kts | 27° |
| 2026-05-09 13:48 | 40.46736 | -73.53283 | 6175 ft | 261 kts | 27° |
| 2026-05-09 13:48 | 40.48327 | -73.52154 | 6010 ft | 259 kts | 27° |
| 2026-05-09 13:48 | 40.49910 | -73.51027 | 5797 ft | 258 kts | 27° |
| 2026-05-09 13:48 | 40.51487 | -73.49902 | 5576 ft | 258 kts | 27° |
| 2026-05-09 13:49 | 40.53056 | -73.48774 | 5347 ft | 257 kts | 27° |
| 2026-05-09 13:49 | 40.54620 | -73.47643 | 5148 ft | 256 kts | 27° |
| 2026-05-09 13:49 | 40.56181 | -73.46511 | 4981 ft | 256 kts | 27° |
| 2026-05-09 13:49 | 40.57795 | -73.45693 | 4778 ft | 250 kts | 1° |
| 2026-05-09 13:50 | 40.59510 | -73.45585 | 4576 ft | 246 kts | 357° |
| 2026-05-09 13:50 | 40.61228 | -73.45481 | 4325 ft | 248 kts | 357° |
| 2026-05-09 13:50 | 40.62952 | -73.45369 | 4120 ft | 247 kts | 357° |
| 2026-05-09 13:50 | 40.64660 | -73.45250 | 3933 ft | 245 kts | 357° |
| 2026-05-09 13:51 | 40.66361 | -73.45128 | 3677 ft | 246 kts | 357° |
| 2026-05-09 13:51 | 40.68064 | -73.45009 | 3505 ft | 244 kts | 357° |
| 2026-05-09 13:51 | 40.69755 | -73.44888 | 3283 ft | 243 kts | 354° |
| 2026-05-09 13:51 | 40.71351 | -73.45322 | 3008 ft | 230 kts | 327° |
| 2026-05-09 13:52 | 40.72786 | -73.46218 | 2839 ft | 227 kts | 327° |
| 2026-05-09 13:52 | 40.74218 | -73.47090 | 2633 ft | 226 kts | 327° |
| 2026-05-09 13:52 | 40.75651 | -73.47959 | 2439 ft | 226 kts | 327° |
| 2026-05-09 13:52 | 40.77075 | -73.48815 | 2274 ft | 224 kts | 327° |
| 2026-05-09 13:53 | 40.78419 | -73.49800 | 2057 ft | 218 kts | 308° |
| 2026-05-09 13:53 | 40.79083 | -73.51452 | 2017 ft | 199 kts | 276° |
| 2026-05-09 13:53 | 40.79404 | -73.53235 | 1997 ft | 200 kts | 277° |
| 2026-05-09 13:53 | 40.79736 | -73.55012 | 1986 ft | 199 kts | 277° |
| 2026-05-09 13:54 | 40.80060 | -73.56785 | 1980 ft | 199 kts | 277° |
| 2026-05-09 13:54 | 40.80378 | -73.58566 | 1986 ft | 200 kts | 277° |
| 2026-05-09 13:54 | 40.80380 | -73.60310 | 1967 ft | 190 kts | 244° |
| 2026-05-09 13:54 | 40.79723 | -73.61786 | 1980 ft | 187 kts | 237° |
| 2026-05-09 13:55 | 40.79049 | -73.63252 | 1978 ft | 186 kts | 237° |
| 2026-05-09 13:55 | 40.78286 | -73.64540 | 1965 ft | 171 kts | 217° |
| 2026-05-09 13:55 | 40.77313 | -73.65340 | 1999 ft | 162 kts | 216° |
| 2026-05-09 13:55 | 40.76368 | -73.66161 | 2033 ft | 164 kts | 215° |
| 2026-05-09 13:56 | 40.75415 | -73.66935 | 2003 ft | 158 kts | 214° |
| 2026-05-09 13:56 | 40.74491 | -73.67666 | 2004 ft | 153 kts | 214° |
| 2026-05-09 13:56 | 40.73601 | -73.68366 | 1991 ft | 143 kts | 214° |
| 2026-05-09 13:56 | 40.72799 | -73.68993 | 1929 ft | 130 kts | 214° |
| 2026-05-09 13:57 | 40.72036 | -73.69592 | 1738 ft | 124 kts | 214° |
| 2026-05-09 13:57 | 40.71317 | -73.70156 | 1585 ft | 117 kts | 213° |
| 2026-05-09 13:57 | 40.70611 | -73.70711 | 1436 ft | 120 kts | 213° |
| 2026-05-09 13:57 | 40.69879 | -73.71285 | 1269 ft | 124 kts | 212° |
| 2026-05-09 13:58 | 40.69135 | -73.71867 | 1099 ft | 124 kts | 213° |
| 2026-05-09 13:58 | 40.68385 | -73.72458 | 923 ft | 129 kts | 211° |
| 2026-05-09 13:58 | 40.67596 | -73.73076 | 742 ft | 134 kts | 211° |
| 2026-05-09 13:58 | 40.66801 | -73.73699 | 562 ft | 133 kts | 208° |
| 2026-05-09 13:59 | 40.65995 | -73.74331 | 401 ft | 138 kts | 208° |
| 2026-05-09 13:59 | 40.65169 | -73.74980 | 220 ft | 136 kts | 209° |
| 2026-05-09 13:59 | 40.64370 | -73.75612 | 39 ft | 131 kts | 209° |
| 2026-05-09 13:59 | 40.63738 | -73.76097 | 20 ft | 50 kts | 208° |
| 2026-05-09 14:00 | 40.63563 | -73.76301 | 23 ft | 26 kts | 234° |
| 2026-05-09 14:00 | 40.63532 | -73.76359 | 22 ft | 21 kts | 235° |
| 2026-05-09 14:00 | 40.63396 | -73.76732 | 19 ft | 18 kts | 246° |
| 2026-05-09 14:00 | 40.63362 | -73.76832 | 21 ft | 15 kts | 249° |
| 2026-05-09 14:01 | 40.63355 | -73.76956 | 19 ft | 14 kts | 276° |
| 2026-05-09 14:01 | 40.63399 | -73.77069 | 19 ft | 13 kts | 304° |
| 2026-05-09 14:01 | 40.63432 | -73.77139 | 19 ft | 7 kts | 301° |
| 2026-05-09 14:01 | 40.63483 | -73.77257 | 20 ft | 17 kts | 301° |
| 2026-05-09 14:02 | 40.63528 | -73.77357 | 20 ft | 8 kts | 300° |
| 2026-05-09 14:02 | 40.63530 | -73.77362 | 20 ft | 0 kts | 300° |
| 2026-05-09 14:02 | 40.63569 | -73.77447 | 21 ft | 32 kts | 300° |
| 2026-05-09 14:03 | 40.63694 | -73.77655 | 19 ft | 20 kts | 336° |
| 2026-05-09 14:03 | 40.63785 | -73.77699 | 19 ft | 11 kts | 330° |
| 2026-05-09 14:03 | 40.63882 | -73.77785 | 19 ft | 15 kts | 324° |
| 2026-05-09 14:03 | 40.63949 | -73.77844 | 19 ft | 16 kts | 326° |
| 2026-05-09 14:04 | 40.63972 | -73.77896 | 21 ft | 0 kts | 272° |
| 2026-05-09 14:04 | 40.63965 | -73.77963 | 19 ft | 14 kts | 259° |
| 2026-05-09 14:04 | 40.63954 | -73.78061 | 21 ft | 5 kts | 263° |